createdAt,value
2018-07-12T00:00:20.520Z,13.4
2018-07-12T00:01:29.379Z,13.59
2018-07-12T00:02:38.242Z,13.59
2018-07-12T00:03:47.103Z,13.4
2018-07-12T00:04:56.238Z,13.02
2018-07-12T00:06:05.196Z,12.54
2018-07-12T00:07:14.057Z,11.77
2018-07-12T00:08:22.914Z,12.06
2018-07-12T00:09:32.052Z,11.39
2018-07-12T00:10:40.910Z,11.77
2018-07-12T00:11:49.922Z,11.87
2018-07-12T00:12:58.779Z,11.96
2018-07-12T00:14:07.642Z,11.68
2018-07-12T00:15:16.500Z,11.77
2018-07-12T00:16:25.637Z,11.58
2018-07-12T00:17:34.496Z,11.1
2018-07-12T00:18:43.637Z,10.43
2018-07-12T00:19:52.773Z,10.24
2018-07-12T00:21:01.637Z,10.43
2018-07-12T00:22:10.496Z,10.43
2018-07-12T00:23:19.358Z,10.05
2018-07-12T00:24:28.493Z,10.24
2018-07-12T00:25:37.910Z,10.43
2018-07-12T00:26:46.772Z,10.53
2018-07-12T00:27:55.632Z,10.43
2018-07-12T00:29:04.927Z,10.24
2018-07-12T00:30:13.787Z,10.63
2018-07-12T00:31:22.652Z,10.24
2018-07-12T00:32:31.789Z,10.14
2018-07-12T00:33:40.709Z,10.05
2018-07-12T00:34:50.017Z,10.24
2018-07-12T00:35:59.153Z,10.05
2018-07-12T00:37:08.013Z,10.34
2018-07-12T00:38:16.878Z,10.34
2018-07-12T00:39:26.014Z,10.24
2018-07-12T00:40:35.025Z,10.72
2018-07-12T00:41:43.885Z,10.82
2018-07-12T00:42:52.744Z,11.1
2018-07-12T00:44:01.609Z,11.01
2018-07-12T00:45:10.468Z,11.01
2018-07-12T00:46:19.953Z,10.91
2018-07-12T00:47:28.812Z,10.91
2018-07-12T00:48:37.672Z,10.53
2018-07-12T00:49:46.532Z,10.63
2018-07-12T00:50:55.391Z,10.53
2018-07-12T00:52:04.401Z,10.82
2018-07-12T00:53:13.269Z,11.2
2018-07-12T00:54:22.118Z,11.2
2018-07-12T00:55:31.254Z,10.82
2018-07-12T00:56:40.111Z,10.43
2018-07-12T00:57:49.407Z,10.63
2018-07-12T00:58:58.266Z,10.82
2018-07-12T01:00:07.127Z,10.43
2018-07-12T01:01:15.988Z,10.05
2018-07-12T01:02:24.849Z,10.05
2018-07-12T01:03:33.711Z,9.77
2018-07-12T01:04:42.570Z,9.57
2018-07-12T01:05:51.432Z,9.57
2018-07-12T01:07:00.290Z,9.57
2018-07-12T01:08:09.148Z,9.38
2018-07-12T01:09:18.159Z,9.28
2018-07-12T01:10:27.017Z,9.19
2018-07-12T01:11:35.879Z,9
2018-07-12T01:12:44.736Z,8.33
2018-07-12T01:13:53.875Z,8.23
2018-07-12T01:15:02.734Z,8.23
2018-07-12T01:16:11.594Z,8.42
2018-07-12T01:17:20.452Z,7.95
2018-07-12T01:18:29.590Z,8.14
2018-07-12T01:19:38.727Z,7.65
2018-07-12T01:20:47.591Z,7.46
2018-07-12T01:21:56.723Z,7.27
2018-07-12T01:23:06.146Z,7.56
2018-07-12T01:24:15.289Z,7.75
2018-07-12T01:25:24.147Z,7.46
2018-07-12T01:26:33.007Z,7.75
2018-07-12T01:27:41.869Z,8.23
2018-07-12T01:28:51.015Z,7.95
2018-07-12T01:29:59.872Z,8.33
2018-07-12T01:31:08.731Z,8.14
2018-07-12T01:32:17.591Z,8.61
2018-07-12T01:33:26.724Z,8.71
2018-07-12T01:34:35.582Z,8.61
2018-07-12T01:35:44.717Z,8.33
2018-07-12T01:36:53.862Z,8.04
2018-07-12T01:38:02.720Z,7.85
2018-07-12T01:39:11.586Z,7.65
2018-07-12T01:40:20.720Z,7.65
2018-07-12T01:41:29.580Z,7.84
2018-07-12T01:42:38.438Z,7.75
2018-07-12T01:43:47.447Z,8.23
2018-07-12T01:44:56.307Z,7.94
2018-07-12T01:46:05.719Z,7.94
2018-07-12T01:47:14.860Z,7.95
2018-07-12T01:48:23.720Z,8.23
2018-07-12T01:49:32.581Z,7.84
2018-07-12T01:50:41.718Z,7.85
2018-07-12T01:51:50.579Z,8.23
2018-07-12T01:52:59.989Z,7.95
2018-07-12T01:54:08.855Z,8.04
2018-07-12T01:55:17.811Z,7.84
2018-07-12T01:56:26.673Z,7.56
2018-07-12T01:57:35.531Z,7.56
2018-07-12T01:58:44.671Z,7.84
2018-07-12T01:59:53.531Z,7.56
2018-07-12T02:01:02.392Z,7.18
2018-07-12T02:02:11.248Z,7.18
2018-07-12T02:03:20.111Z,7.37
2018-07-12T02:04:29.805Z,7.17
2018-07-12T02:05:38.670Z,7.27
2018-07-12T02:06:47.955Z,7.27
2018-07-12T02:07:56.819Z,7.08
2018-07-12T02:09:05.954Z,7.27
2018-07-12T02:10:14.812Z,7.37
2018-07-12T02:11:23.673Z,7.18
2018-07-12T02:12:32.644Z,7.17
2018-07-12T02:13:41.496Z,7.27
2018-07-12T02:14:50.352Z,7.27
2018-07-12T02:15:59.210Z,6.88
2018-07-12T02:17:08.348Z,6.7
2018-07-12T02:18:17.558Z,6.31
2018-07-12T02:19:26.414Z,6.02
2018-07-12T02:20:35.275Z,6.22
2018-07-12T02:21:44.135Z,6.31
2018-07-12T02:22:52.993Z,6.31
2018-07-12T02:24:01.852Z,6.51
2018-07-12T02:25:10.710Z,6.41
2018-07-12T02:26:19.570Z,6.41
2018-07-12T02:27:28.483Z,6.51
2018-07-12T02:28:37.301Z,6.51
2018-07-12T02:29:46.312Z,6.7
2018-07-12T02:30:55.172Z,6.89
2018-07-12T02:32:04.309Z,6.79
2018-07-12T02:33:13.452Z,6.88
2018-07-12T02:34:22.591Z,6.88
2018-07-12T02:35:31.829Z,7.17
2018-07-12T02:36:40.970Z,6.7
2018-07-12T02:37:50.387Z,6.6
2018-07-12T02:38:59.255Z,6.51
2018-07-12T02:40:08.676Z,6.12
2018-07-12T02:41:17.916Z,6.22
2018-07-12T02:42:26.784Z,6.22
2018-07-12T02:43:35.925Z,6.22
2018-07-12T02:44:45.608Z,6.22
2018-07-12T02:45:54.758Z,6.22
2018-07-12T02:47:04.521Z,6.22
2018-07-12T02:48:13.943Z,6.31
2018-07-12T02:49:23.356Z,6.02
2018-07-12T02:50:32.770Z,6.02
2018-07-12T02:51:41.629Z,6.41
2018-07-12T02:52:50.875Z,6.22
2018-07-12T02:54:00.029Z,6.12
2018-07-12T02:55:09.727Z,6.22
2018-07-12T02:56:19.145Z,6.41
2018-07-12T02:57:28.291Z,6.12
2018-07-12T02:58:37.146Z,6.31
2018-07-12T02:59:46.004Z,5.93
2018-07-12T03:00:54.866Z,5.83
2018-07-12T03:02:04.008Z,5.83
2018-07-12T03:03:13.150Z,5.65
2018-07-12T03:04:22.306Z,5.26
2018-07-12T03:05:31.731Z,5.26
2018-07-12T03:06:40.599Z,5.65
2018-07-12T03:07:49.739Z,5.36
2018-07-12T03:08:59.158Z,5.07
2018-07-12T03:10:08.710Z,5.16
2018-07-12T03:11:18.125Z,5.07
2018-07-12T03:12:27.273Z,5.16
2018-07-12T03:13:36.410Z,4.69
2018-07-12T03:14:45.545Z,4.97
2018-07-12T03:15:54.678Z,5.07
2018-07-12T03:17:03.540Z,4.78
2018-07-12T03:18:12.409Z,4.78
2018-07-12T03:19:21.270Z,4.69
2018-07-12T03:20:30.410Z,4.88
2018-07-12T03:21:39.420Z,4.69
2018-07-12T03:22:48.572Z,4.49
2018-07-12T03:23:57.710Z,4.3
2018-07-12T03:25:06.849Z,3.83
2018-07-12T03:26:15.708Z,3.92
2018-07-12T03:27:24.850Z,3.44
2018-07-12T03:28:33.708Z,3.63
2018-07-12T03:29:42.567Z,3.06
2018-07-12T03:30:51.437Z,2.87
2018-07-12T03:32:00.857Z,2.68
2018-07-12T03:33:10.153Z,2.77
2018-07-12T03:34:19.016Z,2.68
2018-07-12T03:35:27.871Z,2.77
2018-07-12T03:36:36.779Z,2.68
2018-07-12T03:37:45.591Z,3.06
2018-07-12T03:38:54.725Z,2.68
2018-07-12T03:40:03.589Z,2.68
2018-07-12T03:41:12.449Z,2.77
2018-07-12T03:42:21.308Z,3.25
2018-07-12T03:43:30.167Z,3.44
2018-07-12T03:44:39.030Z,3.63
2018-07-12T03:45:48.441Z,3.34
2018-07-12T03:46:57.298Z,3.63
2018-07-12T03:48:06.159Z,3.34
2018-07-12T03:49:15.020Z,3.06
2018-07-12T03:50:24.535Z,3.06
2018-07-12T03:51:33.671Z,2.68
2018-07-12T03:52:42.530Z,2.58
2018-07-12T03:53:51.390Z,2.39
2018-07-12T03:55:00.248Z,2.2
2018-07-12T03:56:09.109Z,1.72
2018-07-12T03:57:18.247Z,1.72
2018-07-12T03:58:27.386Z,1.34
2018-07-12T03:59:36.243Z,1.43
2018-07-12T04:00:45.381Z,1.34
2018-07-12T04:01:54.388Z,1.34
2018-07-12T04:03:03.246Z,1.81
2018-07-12T04:04:12.106Z,1.72
2018-07-12T04:05:20.965Z,1.91
2018-07-12T04:06:29.822Z,1.72
2018-07-12T04:07:39.109Z,1.81
2018-07-12T04:08:48.245Z,1.81
2018-07-12T04:09:57.101Z,2.1
2018-07-12T04:11:05.963Z,2.48
2018-07-12T04:12:14.821Z,2.58
2018-07-12T04:13:24.028Z,2.68
2018-07-12T04:14:33.163Z,2.77
2018-07-12T04:15:42.022Z,2.58
2018-07-12T04:16:50.881Z,2.2
2018-07-12T04:17:59.741Z,2.29
2018-07-12T04:19:08.756Z,2.2
2018-07-12T04:20:17.614Z,2.39
2018-07-12T04:21:26.475Z,2.1
2018-07-12T04:22:35.335Z,1.81
2018-07-12T04:23:44.196Z,1.72
2018-07-12T04:24:53.056Z,1.91
2018-07-12T04:26:01.914Z,2.01
2018-07-12T04:27:10.783Z,1.91
2018-07-12T04:28:19.920Z,1.62
2018-07-12T04:29:28.783Z,1.15
2018-07-12T04:30:38.069Z,1.43
2018-07-12T04:31:47.205Z,1.91
2018-07-12T04:32:56.064Z,1.91
2018-07-12T04:34:04.927Z,2.29
2018-07-12T04:35:14.344Z,1.91
2018-07-12T04:36:23.551Z,2.39
2018-07-12T04:37:32.687Z,2.39
2018-07-12T04:38:41.873Z,2.1
2018-07-12T04:39:50.735Z,2.77
2018-07-12T04:40:59.594Z,2.97
2018-07-12T04:42:08.455Z,2.68
2018-07-12T04:43:17.317Z,2.58
2018-07-12T04:44:26.510Z,3.06
2018-07-12T04:45:35.367Z,3.44
2018-07-12T04:46:44.217Z,3.92
2018-07-12T04:47:53.228Z,3.63
2018-07-12T04:49:02.643Z,2.39
2018-07-12T04:50:12.060Z,2.1
2018-07-12T04:51:20.921Z,1.81
2018-07-12T04:52:30.058Z,1.34
2018-07-12T04:53:39.360Z,1.24
2018-07-12T04:54:48.500Z,1.15
2018-07-12T04:55:57.357Z,0.57
2018-07-12T04:57:06.216Z,0.38
2018-07-12T04:58:15.428Z,0.19
2018-07-12T04:59:24.369Z,0.19
2018-07-12T05:00:33.506Z,0.09
2018-07-12T05:01:42.643Z,0
2018-07-12T05:02:51.499Z,0
2018-07-12T05:04:00.639Z,0
2018-07-12T05:05:09.771Z,0
2018-07-12T05:06:18.911Z,0
2018-07-12T05:07:27.773Z,0
2018-07-12T05:08:36.630Z,0
2018-07-12T05:09:45.487Z,0
2018-07-12T05:10:54.349Z,0
2018-07-12T05:12:03.768Z,0
2018-07-12T05:13:12.910Z,0
2018-07-12T05:14:21.770Z,0
2018-07-12T05:15:30.631Z,0
2018-07-12T05:16:39.641Z,0
2018-07-12T05:17:48.779Z,0
2018-07-12T05:18:57.636Z,0
2018-07-12T05:20:06.500Z,0
2018-07-12T05:21:15.641Z,0
2018-07-12T05:22:24.652Z,0
2018-07-12T05:23:33.519Z,0
2018-07-12T05:24:42.375Z,0
2018-07-12T05:25:51.528Z,0
2018-07-12T05:27:00.666Z,0
2018-07-12T05:28:09.881Z,0
2018-07-12T05:29:18.740Z,0
2018-07-12T05:30:27.601Z,0
2018-07-12T05:31:36.463Z,0
2018-07-12T05:32:45.323Z,0
2018-07-12T05:33:54.334Z,0
2018-07-12T05:35:03.469Z,0
2018-07-12T05:36:12.332Z,0
2018-07-12T05:37:21.192Z,0
2018-07-12T05:38:30.052Z,0
2018-07-12T05:39:39.190Z,0
2018-07-12T05:40:48.327Z,0
2018-07-12T05:41:57.227Z,0
2018-07-12T05:43:06.050Z,0
2018-07-12T05:44:14.909Z,0
2018-07-12T05:45:23.771Z,0
2018-07-12T05:46:32.633Z,0
2018-07-12T05:47:41.491Z,0
2018-07-12T05:48:50.354Z,0
2018-07-12T05:49:59.543Z,0
2018-07-12T05:51:08.554Z,0
2018-07-12T05:52:17.706Z,0
2018-07-12T05:53:26.569Z,0
2018-07-12T05:54:35.428Z,0
2018-07-12T05:55:44.290Z,0
2018-07-12T05:56:53.149Z,0
2018-07-12T05:58:02.010Z,0
2018-07-12T05:59:10.868Z,0
2018-07-12T06:00:19.732Z,0
2018-07-12T06:01:29.188Z,0
2018-07-12T06:02:38.347Z,0
2018-07-12T06:03:47.507Z,0
2018-07-12T06:04:56.366Z,0
2018-07-12T06:06:05.226Z,0
2018-07-12T06:07:14.093Z,0
2018-07-12T06:08:23.104Z,0.57
2018-07-12T06:09:31.969Z,0.48
2018-07-12T06:10:40.830Z,0
2018-07-12T06:11:49.692Z,0
2018-07-12T06:12:58.551Z,0.38
2018-07-12T06:14:07.727Z,0.67
2018-07-12T06:15:16.587Z,0
2018-07-12T06:16:25.729Z,0.19
2018-07-12T06:17:34.592Z,0
2018-07-12T06:18:43.785Z,0
2018-07-12T06:19:52.793Z,0.48
2018-07-12T06:21:01.655Z,0.67
2018-07-12T06:22:10.793Z,1.05
2018-07-12T06:23:19.653Z,0.38
2018-07-12T06:24:29.071Z,0.19
2018-07-12T06:25:38.335Z,0.38
2018-07-12T06:26:47.199Z,0.19
2018-07-12T06:27:56.337Z,0.09
2018-07-12T06:29:05.196Z,0
2018-07-12T06:30:14.063Z,0.38
2018-07-12T06:31:23.067Z,0.19
2018-07-12T06:32:32.202Z,0
2018-07-12T06:33:41.347Z,0.67
2018-07-12T06:34:50.486Z,0.57
2018-07-12T06:35:59.625Z,0.09
2018-07-12T06:37:08.783Z,1.15
2018-07-12T06:38:17.948Z,0.19
2018-07-12T06:39:26.809Z,0.19
2018-07-12T06:40:35.670Z,1.43
2018-07-12T06:41:44.532Z,1.15
2018-07-12T06:42:53.392Z,0.67
2018-07-12T06:44:02.255Z,0.96
2018-07-12T06:45:11.117Z,1.05
2018-07-12T06:46:19.980Z,1.15
2018-07-12T06:47:29.391Z,2.2
2018-07-12T06:48:38.251Z,2.78
2018-07-12T06:49:47.115Z,1.82
2018-07-12T06:50:55.978Z,1.34
2018-07-12T06:52:04.838Z,1.63
2018-07-12T06:53:13.702Z,1.05
2018-07-12T06:54:22.562Z,1.63
2018-07-12T06:55:31.697Z,1.43
2018-07-12T06:56:40.556Z,2.2
2018-07-12T06:57:49.417Z,2.49
2018-07-12T06:58:58.564Z,2.01
2018-07-12T07:00:07.424Z,1.92
2018-07-12T07:01:16.562Z,1.34
2018-07-12T07:02:25.423Z,1.53
2018-07-12T07:03:34.286Z,2.11
2018-07-12T07:04:43.149Z,1.63
2018-07-12T07:05:52.210Z,3.45
2018-07-12T07:07:01.322Z,1.92
2018-07-12T07:08:10.182Z,1.43
2018-07-12T07:09:19.044Z,2.2
2018-07-12T07:10:27.906Z,4.22
2018-07-12T07:11:37.113Z,3.55
2018-07-12T07:12:45.974Z,3.55
2018-07-12T07:13:55.110Z,4.99
2018-07-12T07:15:03.970Z,4.99
2018-07-12T07:16:12.833Z,4.99
2018-07-12T07:17:21.795Z,5.95
2018-07-12T07:18:30.932Z,5.47
2018-07-12T07:19:39.789Z,5.08
2018-07-12T07:20:48.652Z,6.52
2018-07-12T07:21:57.517Z,7.58
2018-07-12T07:23:06.805Z,8.92
2018-07-12T07:24:15.948Z,8.15
2018-07-12T07:25:24.806Z,8.93
2018-07-12T07:26:33.667Z,7.78
2018-07-12T07:27:42.531Z,9.03
2018-07-12T07:28:51.393Z,9.7
2018-07-12T07:30:00.256Z,9.22
2018-07-12T07:31:09.677Z,10.17
2018-07-12T07:32:18.561Z,7.87
2018-07-12T07:33:27.425Z,8.83
2018-07-12T07:34:36.262Z,9.22
2018-07-12T07:35:45.136Z,9.31
2018-07-12T07:36:53.987Z,9.6
2018-07-12T07:38:03.124Z,9.89
2018-07-12T07:39:11.984Z,10.08
2018-07-12T07:40:20.852Z,10.17
2018-07-12T07:41:29.713Z,11.43
2018-07-12T07:42:38.575Z,11.14
2018-07-12T07:43:47.438Z,11.61
2018-07-12T07:44:56.297Z,10.94
2018-07-12T07:46:05.317Z,10.94
2018-07-12T07:47:14.178Z,13.54
2018-07-12T07:48:23.038Z,12.38
2018-07-12T07:49:31.900Z,11.81
2018-07-12T07:50:40.763Z,13.54
2018-07-12T07:51:50.005Z,12.96
2018-07-12T07:52:58.869Z,13.64
2018-07-12T07:54:07.731Z,14.6
2018-07-12T07:55:16.874Z,13.16
2018-07-12T07:56:25.736Z,14.22
2018-07-12T07:57:34.600Z,14.6
2018-07-12T07:58:43.462Z,13.93
2018-07-12T07:59:52.329Z,13.93
2018-07-12T08:01:01.191Z,15.18
2018-07-12T08:02:10.358Z,17.19
2018-07-12T08:03:19.237Z,17.39
2018-07-12T08:04:29.108Z,17.1
2018-07-12T08:05:37.969Z,18.93
2018-07-12T08:06:46.831Z,19.98
2018-07-12T08:07:55.695Z,19.8
2018-07-12T08:09:04.713Z,20.38
2018-07-12T08:10:13.859Z,18.46
2018-07-12T08:11:22.997Z,21.62
2018-07-12T08:12:31.858Z,20.76
2018-07-12T08:13:40.717Z,20.28
2018-07-12T08:14:50.013Z,19.61
2018-07-12T08:15:58.874Z,20.57
2018-07-12T08:17:07.736Z,20
2018-07-12T08:18:16.597Z,19.42
2018-07-12T08:19:25.468Z,17.97
2018-07-12T08:20:34.765Z,20.18
2018-07-12T08:21:43.628Z,21.15
2018-07-12T08:22:52.492Z,21.44
2018-07-12T08:24:01.360Z,24.03
2018-07-12T08:25:10.223Z,21.62
2018-07-12T08:26:19.237Z,21.62
2018-07-12T08:27:28.102Z,25.28
2018-07-12T08:28:36.962Z,23.07
2018-07-12T08:29:45.824Z,24.23
2018-07-12T08:30:55.013Z,23.08
2018-07-12T08:32:04.154Z,22.6
2018-07-12T08:33:13.027Z,25.39
2018-07-12T08:34:21.874Z,24.43
2018-07-12T08:35:30.739Z,26.64
2018-07-12T08:36:39.602Z,28.66
2018-07-12T08:37:48.465Z,31.26
2018-07-12T08:38:57.613Z,27.98
2018-07-12T08:40:06.759Z,32.03
2018-07-12T08:41:15.622Z,30.49
2018-07-12T08:42:24.534Z,32.79
2018-07-12T08:43:33.404Z,31.45
2018-07-12T08:44:42.263Z,32.04
2018-07-12T08:45:51.127Z,32.9
2018-07-12T08:47:00.271Z,36.56
2018-07-12T08:48:09.132Z,44.07
2018-07-12T08:49:18.142Z,42.63
2018-07-12T08:50:27.004Z,38.59
2018-07-12T08:51:35.868Z,43.59
2018-07-12T08:52:44.729Z,47.82
2018-07-12T08:53:53.593Z,44.45
2018-07-12T08:55:02.609Z,50.51
2018-07-12T08:56:11.473Z,47.27
2018-07-12T08:57:20.338Z,41.01
2018-07-12T08:58:29.550Z,42.63
2018-07-12T08:59:38.416Z,53.31
2018-07-12T09:00:47.279Z,44.67
2018-07-12T09:01:56.420Z,40.63
2018-07-12T09:03:05.393Z,40.89
2018-07-12T09:04:14.625Z,35.99
2018-07-12T09:05:23.489Z,44.45
2018-07-12T09:06:32.458Z,42.07
2018-07-12T09:07:41.599Z,41.49
2018-07-12T09:08:50.460Z,45.34
2018-07-12T09:09:59.331Z,45.34
2018-07-12T09:11:08.191Z,46.88
2018-07-12T09:12:17.156Z,54.78
2018-07-12T09:13:26.021Z,47.87
2018-07-12T09:14:35.160Z,52.59
2018-07-12T09:15:44.071Z,54.03
2018-07-12T09:16:52.889Z,51.17
2018-07-12T09:18:02.004Z,49.89
2018-07-12T09:19:10.873Z,52.49
2018-07-12T09:20:19.737Z,48.35
2018-07-12T09:21:28.599Z,56.44
2018-07-12T09:22:37.464Z,64.18
2018-07-12T09:23:46.882Z,60.13
2018-07-12T09:24:55.748Z,58.97
2018-07-12T09:26:04.613Z,65.56
2018-07-12T09:27:13.754Z,64.02
2018-07-12T09:28:22.620Z,58.91
2018-07-12T09:29:32.111Z,71.79
2018-07-12T09:30:40.978Z,71.06
2018-07-12T09:31:50.122Z,68.35
2018-07-12T09:32:59.271Z,64.21
2018-07-12T09:34:08.137Z,70.48
2018-07-12T09:35:17.155Z,59.68
2018-07-12T09:36:26.292Z,65.27
2018-07-12T09:37:35.160Z,60.61
2018-07-12T09:38:44.027Z,70.25
2018-07-12T09:39:52.895Z,65.66
2018-07-12T09:41:02.399Z,67.3
2018-07-12T09:42:11.540Z,69.23
2018-07-12T09:43:20.407Z,66.52
2018-07-12T09:44:29.271Z,72.79
2018-07-12T09:45:38.415Z,70.96
2018-07-12T09:46:47.433Z,73.37
2018-07-12T09:47:56.581Z,75.1
2018-07-12T09:49:05.489Z,70.67
2018-07-12T09:50:14.320Z,75.49
2018-07-12T09:51:23.188Z,76.01
2018-07-12T09:52:32.059Z,67.04
2018-07-12T09:53:41.201Z,69.45
2018-07-12T09:54:50.628Z,71.38
2018-07-12T09:55:59.953Z,74.43
2018-07-12T09:57:09.391Z,78.03
2018-07-12T09:58:18.357Z,76.68
2018-07-12T09:59:27.220Z,71.86
2018-07-12T10:00:36.085Z,74.95
2018-07-12T10:01:44.953Z,69.74
2018-07-12T10:02:54.093Z,67.81
2018-07-12T10:04:02.960Z,71
2018-07-12T10:05:11.829Z,83.44
2018-07-12T10:06:21.257Z,77.84
2018-07-12T10:07:30.123Z,79.52
2018-07-12T10:08:38.987Z,73.44
2018-07-12T10:09:47.854Z,79
2018-07-12T10:10:56.993Z,80.16
2018-07-12T10:12:06.144Z,73.69
2018-07-12T10:13:15.005Z,74.79
2018-07-12T10:14:23.866Z,81.65
2018-07-12T10:15:32.730Z,74.99
2018-07-12T10:16:41.868Z,81.16
2018-07-12T10:17:50.735Z,81.74
2018-07-12T10:18:59.600Z,78.69
2018-07-12T10:20:08.468Z,79.14
2018-07-12T10:21:17.338Z,83.29
2018-07-12T10:22:26.203Z,85.16
2018-07-12T10:23:35.067Z,83.52
2018-07-12T10:24:44.251Z,86.07
2018-07-12T10:25:53.075Z,85.49
2018-07-12T10:27:01.942Z,82.6
2018-07-12T10:28:10.811Z,85.59
2018-07-12T10:29:20.244Z,86.94
2018-07-12T10:30:29.109Z,87.18
2018-07-12T10:31:37.979Z,85.53
2018-07-12T10:32:47.773Z,84.19
2018-07-12T10:33:56.636Z,81.34
2018-07-12T10:35:05.500Z,83.56
2018-07-12T10:36:14.643Z,88.1
2018-07-12T10:37:23.508Z,87.81
2018-07-12T10:38:32.530Z,84.67
2018-07-12T10:39:41.396Z,86.17
2018-07-12T10:40:50.262Z,87.27
2018-07-12T10:41:59.128Z,80.61
2018-07-12T10:43:07.994Z,89.79
2018-07-12T10:44:17.149Z,84.95
2018-07-12T10:45:26.024Z,86.99
2018-07-12T10:46:35.439Z,86.51
2018-07-12T10:47:44.305Z,86.45
2018-07-12T10:48:53.462Z,88.77
2018-07-12T10:50:02.329Z,87.51
2018-07-12T10:51:11.195Z,86.69
2018-07-12T10:52:20.062Z,88.23
2018-07-12T10:53:28.927Z,89.2
2018-07-12T10:54:38.069Z,84.84
2018-07-12T10:55:46.934Z,87.51
2018-07-12T10:56:55.801Z,88.48
2018-07-12T10:58:04.667Z,86.16
2018-07-12T10:59:13.540Z,87.81
2018-07-12T11:00:22.683Z,89.29
2018-07-12T11:01:31.674Z,90.56
2018-07-12T11:02:40.524Z,85.24
2018-07-12T11:03:49.939Z,87.65
2018-07-12T11:04:59.080Z,84.66
2018-07-12T11:06:08.228Z,88.81
2018-07-12T11:07:17.476Z,88.23
2018-07-12T11:08:26.345Z,88.33
2018-07-12T11:09:35.211Z,88.91
2018-07-12T11:10:44.078Z,87.75
2018-07-12T11:11:53.226Z,88.33
2018-07-12T11:13:02.452Z,89.29
2018-07-12T11:14:11.320Z,92.2
2018-07-12T11:15:20.742Z,89.01
2018-07-12T11:16:29.885Z,88.09
2018-07-12T11:17:38.750Z,89.78
2018-07-12T11:18:47.968Z,87.95
2018-07-12T11:19:56.838Z,86.49
2018-07-12T11:21:05.723Z,88.85
2018-07-12T11:22:15.210Z,89.63
2018-07-12T11:23:24.078Z,86.54
2018-07-12T11:24:32.948Z,87.99
2018-07-12T11:25:41.818Z,89.25
2018-07-12T11:26:50.687Z,90.74
2018-07-12T11:27:59.831Z,88.09
2018-07-12T11:29:08.699Z,85.03
2018-07-12T11:30:17.595Z,87.31
2018-07-12T11:31:26.439Z,90.12
2018-07-12T11:32:35.857Z,85.57
2018-07-12T11:33:44.724Z,90.5
2018-07-12T11:34:53.869Z,85.28
2018-07-12T11:36:02.738Z,88.37
2018-07-12T11:37:12.071Z,86.15
2018-07-12T11:38:20.943Z,87.41
2018-07-12T11:39:29.811Z,87.02
2018-07-12T11:40:38.953Z,88.76
2018-07-12T11:41:48.446Z,92.05
2018-07-12T11:42:57.313Z,87.7
2018-07-12T11:44:06.179Z,88.57
2018-07-12T11:45:15.048Z,87.65
2018-07-12T11:46:23.917Z,87.07
2018-07-12T11:47:32.789Z,89.88
2018-07-12T11:48:41.653Z,90.41
2018-07-12T11:49:50.518Z,91.14
2018-07-12T11:50:59.388Z,90.36
2018-07-12T11:52:08.253Z,90.36
2018-07-12T11:53:17.471Z,89.39
2018-07-12T11:54:26.340Z,89.78
2018-07-12T11:55:35.203Z,90.26
2018-07-12T11:56:44.069Z,90.17
2018-07-12T11:57:52.935Z,89.01
2018-07-12T11:59:02.077Z,90.36
2018-07-12T12:00:10.941Z,89.39
2018-07-12T12:01:20.090Z,90.46
2018-07-12T12:02:29.332Z,90.31
2018-07-12T12:03:38.477Z,89.44
2018-07-12T12:04:47.397Z,90.84
2018-07-12T12:05:56.269Z,86.38
2018-07-12T12:07:05.425Z,85.36
2018-07-12T12:08:14.293Z,84.68
2018-07-12T12:09:23.449Z,85.02
2018-07-12T12:10:32.478Z,88.79
2018-07-12T12:11:41.649Z,85.5
2018-07-12T12:12:50.806Z,84.43
2018-07-12T12:14:00.481Z,83.22
2018-07-12T12:15:09.354Z,86.75
2018-07-12T12:16:18.226Z,83.25
2018-07-12T12:17:27.097Z,84.91
2018-07-12T12:18:35.966Z,81.16
2018-07-12T12:19:44.839Z,80.77
2018-07-12T12:20:53.712Z,83.63
2018-07-12T12:22:02.862Z,82.9
2018-07-12T12:23:12.013Z,78.73
2018-07-12T12:24:20.883Z,82.23
2018-07-12T12:25:29.757Z,80.68
2018-07-12T12:26:38.632Z,81.84
2018-07-12T12:27:47.506Z,78.58
2018-07-12T12:28:56.381Z,78.87
2018-07-12T12:30:05.255Z,77.55
2018-07-12T12:31:14.130Z,80.36
2018-07-12T12:32:23.278Z,75.25
2018-07-12T12:33:32.290Z,77.48
2018-07-12T12:34:41.469Z,77.55
2018-07-12T12:35:50.345Z,79
2018-07-12T12:36:59.221Z,79.84
2018-07-12T12:38:08.374Z,80.29
2018-07-12T12:39:17.346Z,79.71
2018-07-12T12:40:26.222Z,79.8
2018-07-12T12:41:35.367Z,79.61
2018-07-12T12:42:44.240Z,80.77
2018-07-12T12:43:53.108Z,80.87
2018-07-12T12:45:01.983Z,82.62
2018-07-12T12:46:10.854Z,77.24
2018-07-12T12:47:19.726Z,77.72
2018-07-12T12:48:28.875Z,78.69
2018-07-12T12:49:37.752Z,82.67
2018-07-12T12:50:46.953Z,80.34
2018-07-12T12:51:56.081Z,80.73
2018-07-12T12:53:04.961Z,79.08
2018-07-12T12:54:13.830Z,76.01
2018-07-12T12:55:22.703Z,82.23
2018-07-12T12:56:31.676Z,76.79
2018-07-12T12:57:40.548Z,76.15
2018-07-12T12:58:49.422Z,76.64
2018-07-12T12:59:58.596Z,79.25
2018-07-12T13:01:07.751Z,76.83
2018-07-12T13:02:16.624Z,73.72
2018-07-12T13:03:25.496Z,73.66
2018-07-12T13:04:34.370Z,72.45
2018-07-12T13:05:43.243Z,73.52
2018-07-12T13:06:52.114Z,72.27
2018-07-12T13:08:01.101Z,72.49
2018-07-12T13:09:10.724Z,75.51
2018-07-12T13:10:19.595Z,79.2
2018-07-12T13:11:28.467Z,76.83
2018-07-12T13:12:37.339Z,77.31
2018-07-12T13:13:46.212Z,78.09
2018-07-12T13:14:55.085Z,78.87
2018-07-12T13:16:03.959Z,79.61
2018-07-12T13:17:13.108Z,82.13
2018-07-12T13:18:22.257Z,79.02
2018-07-12T13:19:31.128Z,79.22
2018-07-12T13:20:39.995Z,79.02
2018-07-12T13:21:49.415Z,80.05
2018-07-12T13:22:58.285Z,80.63
2018-07-12T13:24:07.154Z,81.21
2018-07-12T13:25:16.304Z,84.56
2018-07-12T13:26:25.184Z,80.68
2018-07-12T13:27:34.056Z,80.13
2018-07-12T13:28:44.162Z,79.59
2018-07-12T13:29:53.033Z,75.64
2018-07-12T13:31:02.108Z,75.64
2018-07-12T13:32:10.980Z,77.04
2018-07-12T13:33:20.135Z,79.76
2018-07-12T13:34:29.007Z,71.98
2018-07-12T13:35:37.886Z,70.95
2018-07-12T13:36:47.051Z,75.46
2018-07-12T13:37:55.927Z,70.68
2018-07-12T13:39:04.804Z,71.11
2018-07-12T13:40:13.680Z,70.72
2018-07-12T13:41:22.558Z,69.75
2018-07-12T13:42:31.713Z,73.65
2018-07-12T13:43:40.589Z,69.62
2018-07-12T13:44:49.462Z,75.65
2018-07-12T13:45:58.339Z,71.37
2018-07-12T13:47:07.215Z,70.78
2018-07-12T13:48:16.561Z,75.95
2018-07-12T13:49:25.393Z,71.04
2018-07-12T13:50:34.267Z,73.57
2018-07-12T13:51:43.418Z,70.91
2018-07-12T13:52:52.568Z,70.56
2018-07-12T13:54:01.443Z,71.11
2018-07-12T13:55:10.317Z,75.48
2018-07-12T13:56:19.192Z,72.37
2018-07-12T13:57:28.067Z,73.73
2018-07-12T13:58:36.946Z,71.5
2018-07-12T13:59:46.246Z,74.61
2018-07-12T14:00:55.121Z,72.27
2018-07-12T14:02:04.282Z,74.32
2018-07-12T14:03:13.707Z,73.05
2018-07-12T14:04:22.578Z,73.89
2018-07-12T14:05:31.890Z,74.76
2018-07-12T14:06:40.760Z,74.38
2018-07-12T14:07:49.633Z,75.25
2018-07-12T14:08:58.506Z,73.63
2018-07-12T14:10:07.379Z,71.82
2018-07-12T14:11:16.530Z,71.92
2018-07-12T14:12:25.403Z,72.34
2018-07-12T14:13:34.277Z,73.61
2018-07-12T14:14:43.428Z,72.67
2018-07-12T14:15:52.303Z,69.26
2018-07-12T14:17:01.177Z,68.13
2018-07-12T14:18:10.056Z,69.39
2018-07-12T14:19:18.929Z,70.89
2018-07-12T14:20:27.807Z,69.2
2018-07-12T14:21:36.684Z,69.13
2018-07-12T14:22:45.562Z,69.13
2018-07-12T14:23:54.719Z,68.35
2018-07-12T14:25:03.593Z,71.77
2018-07-12T14:26:12.471Z,69.33
2018-07-12T14:27:21.348Z,70.5
2018-07-12T14:28:30.781Z,67.15
2018-07-12T14:29:39.654Z,67.57
2018-07-12T14:30:48.531Z,68.55
2018-07-12T14:31:57.410Z,65.46
2018-07-12T14:33:06.292Z,67.51
2018-07-12T14:34:15.267Z,64.42
2018-07-12T14:35:24.144Z,64.61
2018-07-12T14:36:33.298Z,65.59
2018-07-12T14:37:42.175Z,66.17
2018-07-12T14:38:51.053Z,63.24
2018-07-12T14:40:00.282Z,62.3
2018-07-12T14:41:09.162Z,62.27
2018-07-12T14:42:18.042Z,60.25
2018-07-12T14:43:26.928Z,61.04
2018-07-12T14:44:35.806Z,61.35
2018-07-12T14:45:44.835Z,60.67
2018-07-12T14:46:53.997Z,60.99
2018-07-12T14:48:02.873Z,57.54
2018-07-12T14:49:11.750Z,58.91
2018-07-12T14:50:20.630Z,58.55
2018-07-12T14:51:29.509Z,57.18
2018-07-12T14:52:38.389Z,55.91
2018-07-12T14:53:47.549Z,56.4
2018-07-12T14:54:56.703Z,56.6
2018-07-12T14:56:05.589Z,55.91
2018-07-12T14:57:15.178Z,57.5
2018-07-12T14:58:24.059Z,58.18
2018-07-12T14:59:32.943Z,56.23
2018-07-12T15:00:42.105Z,55.96
2018-07-12T15:01:50.987Z,59.46
2018-07-12T15:02:59.871Z,56.2
2018-07-12T15:04:08.747Z,54.08
2018-07-12T15:05:17.633Z,54.77
2018-07-12T15:06:26.511Z,54.96
2018-07-12T15:07:35.389Z,57.89
2018-07-12T15:08:44.427Z,56.79
2018-07-12T15:09:53.300Z,58.26
2018-07-12T15:11:02.465Z,56.82